createdAt,value
2018-03-08T00:00:25.938Z,24.50
2018-03-08T00:02:53.568Z,22.83
2018-03-08T00:05:21.226Z,24.13
2018-03-08T00:07:49.151Z,23.70
2018-03-08T00:10:16.733Z,23.23
2018-03-08T00:12:44.312Z,25.30
2018-03-08T00:15:11.960Z,24.60
2018-03-08T00:17:39.534Z,24.30
2018-03-08T00:20:07.521Z,27.10
2018-03-08T00:22:35.636Z,29.17
2018-03-08T00:25:03.797Z,27.50
2018-03-08T00:27:31.826Z,30.20
2018-03-08T00:30:00.125Z,30.07
2018-03-08T00:32:28.110Z,30.90
2018-03-08T00:34:56.313Z,30.70
2018-03-08T00:37:23.873Z,32.43
2018-03-08T00:39:51.462Z,31.27
2018-03-08T00:42:19.131Z,29.63
2018-03-08T00:44:46.828Z,32.50
2018-03-08T00:47:14.480Z,30.20
2018-03-08T00:49:42.123Z,31.17
2018-03-08T00:52:09.748Z,32.10
2018-03-08T00:54:37.334Z,30.90
2018-03-08T00:57:05.009Z,31.07
2018-03-08T00:59:32.629Z,28.13
2018-03-08T01:02:00.210Z,27.33
2018-03-08T01:04:27.849Z,27.13
2018-03-08T01:06:55.468Z,23.93
2018-03-08T01:09:23.371Z,25.87
2018-03-08T01:11:50.955Z,21.97
2018-03-08T01:14:18.514Z,22.00
2018-03-08T01:16:46.221Z,22.63
2018-03-08T01:19:13.915Z,21.90
2018-03-08T01:21:41.476Z,18.37
2018-03-08T01:24:09.085Z,18.43
2018-03-08T01:26:36.693Z,15.20
2018-03-08T01:29:04.291Z,13.50
2018-03-08T01:31:31.895Z,13.90
2018-03-08T01:33:59.502Z,12.87
2018-03-08T01:36:29.851Z,12.13
2018-03-08T01:38:57.438Z,10.47
2018-03-08T01:41:25.156Z,9.37
2018-03-08T01:43:52.770Z,9.57
2018-03-08T01:46:20.339Z,10.93
2018-03-08T01:48:47.938Z,8.80
2018-03-08T01:51:15.571Z,7.53
2018-03-08T01:53:43.133Z,8.23
2018-03-08T01:56:11.064Z,9.13
2018-03-08T01:58:38.973Z,8.97
2018-03-08T02:01:06.652Z,9.47
2018-03-08T02:03:34.332Z,9.27
2018-03-08T02:06:01.917Z,9.07
2018-03-08T02:08:29.503Z,8.60
2018-03-08T02:10:57.141Z,10.20
2018-03-08T02:13:24.824Z,10.87
2018-03-08T02:15:52.929Z,10.30
2018-03-08T02:18:20.542Z,12.30
2018-03-08T02:20:48.235Z,12.80
2018-03-08T02:23:15.810Z,15.20
2018-03-08T02:25:43.418Z,13.80
2018-03-08T02:28:10.992Z,14.23
2018-03-08T02:30:38.917Z,15.10
2018-03-08T02:33:06.673Z,17.70
2018-03-08T02:35:38.531Z,17.63
2018-03-08T02:38:06.580Z,17.90
2018-03-08T02:40:34.455Z,17.97
2018-03-08T02:43:02.091Z,16.57
2018-03-08T02:45:29.857Z,19.83
2018-03-08T02:47:57.610Z,19.17
2018-03-08T02:50:25.322Z,18.50
2018-03-08T02:52:53.092Z,17.67
2018-03-08T02:55:20.702Z,17.43
2018-03-08T02:57:48.310Z,17.17
2018-03-08T03:00:15.992Z,15.23
2018-03-08T03:02:43.704Z,15.60
2018-03-08T03:05:11.283Z,17.13
2018-03-08T03:07:39.102Z,17.63
2018-03-08T03:10:06.741Z,16.37
2018-03-08T03:12:34.574Z,17.10
2018-03-08T03:15:02.161Z,15.13
2018-03-08T03:17:29.843Z,16.83
2018-03-08T03:19:57.506Z,16.20
2018-03-08T03:22:25.456Z,14.77
2018-03-08T03:24:53.162Z,14.03
2018-03-08T03:27:20.764Z,16.00
2018-03-08T03:29:48.437Z,15.00
2018-03-08T03:32:15.999Z,14.50
2018-03-08T03:34:43.676Z,15.83
2018-03-08T03:37:11.665Z,15.80
2018-03-08T03:39:39.277Z,16.00
2018-03-08T03:42:06.918Z,15.80
2018-03-08T03:44:34.546Z,16.40
2018-03-08T03:47:02.172Z,16.67
2018-03-08T03:49:29.943Z,16.47
2018-03-08T03:51:57.766Z,15.60
2018-03-08T03:54:25.448Z,17.13
2018-03-08T03:56:53.112Z,14.77
2018-03-08T03:59:20.689Z,15.40
2018-03-08T04:01:48.374Z,13.33
2018-03-08T04:04:16.034Z,15.23
2018-03-08T04:06:44.620Z,14.70
2018-03-08T04:09:12.336Z,14.07
2018-03-08T04:11:40.106Z,15.07
2018-03-08T04:14:07.707Z,14.27
2018-03-08T04:16:35.328Z,15.07
2018-03-08T04:19:03.030Z,17.10
2018-03-08T04:21:30.687Z,16.20
2018-03-08T04:23:58.380Z,16.27
2018-03-08T04:26:26.092Z,17.70
2018-03-08T04:28:53.743Z,21.00
2018-03-08T04:31:21.429Z,22.13
2018-03-08T04:33:49.042Z,23.83
2018-03-08T04:36:16.796Z,25.97
2018-03-08T04:38:44.516Z,27.23
2018-03-08T04:41:12.079Z,26.00
2018-03-08T04:43:39.625Z,24.53
2018-03-08T04:46:07.244Z,27.67
2018-03-08T04:48:34.858Z,29.70
2018-03-08T04:51:02.465Z,28.07
2018-03-08T04:53:30.158Z,32.00
2018-03-08T04:55:57.995Z,30.87
2018-03-08T04:58:25.586Z,28.53
2018-03-08T05:00:53.142Z,30.77
2018-03-08T05:03:20.806Z,32.07
2018-03-08T05:05:48.594Z,31.00
2018-03-08T05:08:16.237Z,30.83
2018-03-08T05:10:43.845Z,31.60
2018-03-08T05:13:11.404Z,31.03
2018-03-08T05:15:39.101Z,29.20
2018-03-08T05:18:06.731Z,29.30
2018-03-08T05:20:34.309Z,28.20
2018-03-08T05:23:01.924Z,31.73
2018-03-08T05:25:29.534Z,30.20
2018-03-08T05:27:57.448Z,30.60
2018-03-08T05:30:25.115Z,30.20
2018-03-08T05:32:53.066Z,28.90
2018-03-08T05:35:20.641Z,29.97
2018-03-08T05:37:48.392Z,31.07
2018-03-08T05:40:15.960Z,29.57
2018-03-08T05:42:43.565Z,29.07
2018-03-08T05:45:11.170Z,30.97
2018-03-08T05:47:38.809Z,32.30
2018-03-08T05:50:06.554Z,30.60
2018-03-08T05:52:34.372Z,30.73
2018-03-08T05:55:02.009Z,29.83
2018-03-08T05:57:29.629Z,30.77
2018-03-08T05:59:57.289Z,30.47
2018-03-08T06:02:24.996Z,32.40
2018-03-08T06:04:52.613Z,31.37
2018-03-08T06:07:20.205Z,30.90
2018-03-08T06:09:47.848Z,30.37
2018-03-08T06:12:15.463Z,29.30
2018-03-08T06:14:43.135Z,30.87
2018-03-08T06:17:10.869Z,28.87
2018-03-08T06:19:38.443Z,30.57
2018-03-08T06:22:06.041Z,30.60
2018-03-08T06:24:33.631Z,30.80
2018-03-08T06:27:01.252Z,32.10
2018-03-08T06:29:28.871Z,32.07
2018-03-08T06:31:56.467Z,30.13
2018-03-08T06:34:24.085Z,30.47
2018-03-08T06:36:51.652Z,28.73
2018-03-08T06:39:19.232Z,29.63
2018-03-08T06:41:46.831Z,32.60
2018-03-08T06:44:14.387Z,28.10
2018-03-08T06:46:41.961Z,30.93
2018-03-08T06:49:09.840Z,28.80
2018-03-08T06:51:37.462Z,25.10
2018-03-08T06:54:05.027Z,28.70
2018-03-08T06:56:32.617Z,27.20
2018-03-08T06:59:00.251Z,27.60
2018-03-08T07:01:27.836Z,28.57
2018-03-08T07:03:55.417Z,25.60
2018-03-08T07:06:23.021Z,26.93
2018-03-08T07:08:50.597Z,25.40
2018-03-08T07:11:18.193Z,27.10
2018-03-08T07:13:45.964Z,24.60
2018-03-08T07:16:13.556Z,26.20
2018-03-08T07:18:41.177Z,27.33
2018-03-08T07:21:08.844Z,26.30
2018-03-08T07:23:36.419Z,24.67
2018-03-08T07:26:04.310Z,28.53
2018-03-08T07:28:32.035Z,30.70
2018-03-08T07:30:59.621Z,26.30
2018-03-08T07:33:27.179Z,26.70
2018-03-08T07:35:54.833Z,28.87
2018-03-08T07:38:22.429Z,28.20
2018-03-08T07:40:50.010Z,28.00
2018-03-08T07:43:17.644Z,28.23
2018-03-08T07:45:45.316Z,25.47
2018-03-08T07:48:12.919Z,27.37
2018-03-08T07:50:40.520Z,24.23
2018-03-08T07:53:08.245Z,24.07
2018-03-08T07:55:35.713Z,23.63
2018-03-08T07:58:03.305Z,23.30
2018-03-08T08:00:30.913Z,21.77
2018-03-08T08:02:58.471Z,22.23
2018-03-08T08:05:38.626Z,23.10
2018-03-08T08:08:17.936Z,22.10
2018-03-08T08:10:45.531Z,18.80
2018-03-08T08:13:13.155Z,19.60
2018-03-08T08:15:40.767Z,19.93
2018-03-08T08:18:08.333Z,20.57
2018-03-08T08:20:36.187Z,21.17
2018-03-08T08:23:03.759Z,18.90
2018-03-08T08:25:31.330Z,17.87
2018-03-08T08:27:58.982Z,18.20
2018-03-08T08:30:26.892Z,18.33
2018-03-08T08:32:54.548Z,18.00
2018-03-08T08:35:22.111Z,19.70
2018-03-08T08:37:49.749Z,16.87
2018-03-08T08:40:17.392Z,18.97
2018-03-08T08:42:44.982Z,16.97
2018-03-08T08:45:12.537Z,18.10
2018-03-08T08:47:40.142Z,15.33
2018-03-08T08:50:07.746Z,15.80
2018-03-08T08:52:35.324Z,15.87
2018-03-08T08:55:02.960Z,16.10
2018-03-08T08:57:30.656Z,15.00
2018-03-08T08:59:58.244Z,17.07
2018-03-08T09:02:25.881Z,16.77
2018-03-08T09:04:53.465Z,15.37
2018-03-08T09:07:21.051Z,14.53
2018-03-08T09:09:48.682Z,15.03
2018-03-08T09:12:16.251Z,14.40
2018-03-08T09:14:43.866Z,13.83
2018-03-08T09:17:11.487Z,14.20
2018-03-08T09:19:39.205Z,12.20
2018-03-08T09:22:06.775Z,13.33
2018-03-08T09:24:34.358Z,13.47
2018-03-08T09:27:01.941Z,10.77
2018-03-08T09:29:29.569Z,8.97
2018-03-08T09:31:57.151Z,8.23
2018-03-08T09:34:24.801Z,9.30
2018-03-08T09:36:52.399Z,8.67
2018-03-08T09:39:19.995Z,8.37
2018-03-08T09:41:47.569Z,6.97
2018-03-08T09:44:15.259Z,6.27
2018-03-08T09:46:42.907Z,4.93
2018-03-08T09:49:10.532Z,4.87
2018-03-08T09:51:38.107Z,5.07
2018-03-08T09:54:06.073Z,7.10
2018-03-08T09:56:33.937Z,5.70
2018-03-08T09:59:01.542Z,6.20
2018-03-08T10:01:30.157Z,5.70
2018-03-08T10:03:57.753Z,4.80
2018-03-08T10:06:25.311Z,5.00
2018-03-08T10:08:52.923Z,4.67
2018-03-08T10:11:20.580Z,4.93
2018-03-08T10:13:48.148Z,4.70
2018-03-08T10:16:15.981Z,5.13
2018-03-08T10:18:42.865Z,4.57
2018-03-08T10:21:10.469Z,4.33
2018-03-08T10:23:38.053Z,4.20
2018-03-08T10:26:05.881Z,5.00
2018-03-08T10:28:33.532Z,4.47
2018-03-08T10:31:01.130Z,5.53
2018-03-08T10:33:28.685Z,4.63
2018-03-08T10:35:56.637Z,4.10
2018-03-08T10:38:24.269Z,5.50
2018-03-08T10:40:51.865Z,5.33
2018-03-08T10:43:19.420Z,4.70
2018-03-08T10:45:47.023Z,5.23
2018-03-08T10:48:14.658Z,6.10
2018-03-08T10:50:42.298Z,4.47
2018-03-08T10:53:09.872Z,5.27
2018-03-08T10:55:37.498Z,4.90
2018-03-08T10:58:06.313Z,5.10
2018-03-08T11:00:40.094Z,6.00
2018-03-08T11:03:08.017Z,5.73
2018-03-08T11:05:41.142Z,5.20
2018-03-08T11:08:08.756Z,5.43
2018-03-08T11:10:36.599Z,5.47
2018-03-08T11:13:06.643Z,4.80
2018-03-08T11:15:34.271Z,5.27
2018-03-08T11:18:02.065Z,4.50
2018-03-08T11:20:29.683Z,4.90
2018-03-08T11:22:57.238Z,4.70
2018-03-08T11:25:24.874Z,4.97
2018-03-08T11:27:52.477Z,4.50
2018-03-08T11:30:20.283Z,5.40
2018-03-08T11:32:47.861Z,4.77
2018-03-08T11:35:15.422Z,5.97
2018-03-08T11:37:43.006Z,5.30
2018-03-08T11:40:10.607Z,4.60
2018-03-08T11:42:38.221Z,5.77
2018-03-08T11:45:06.123Z,5.63
2018-03-08T11:47:33.979Z,5.00
2018-03-08T11:50:01.548Z,6.27
2018-03-08T11:52:29.158Z,5.00
2018-03-08T11:54:56.807Z,6.10
2018-03-08T11:57:24.372Z,5.90
2018-03-08T11:59:51.982Z,5.40
2018-03-08T12:02:19.530Z,5.30
2018-03-08T12:04:47.130Z,6.93
2018-03-08T12:07:14.771Z,6.20
2018-03-08T12:09:42.345Z,5.60
2018-03-08T12:12:09.916Z,5.43
2018-03-08T12:14:37.503Z,6.30
2018-03-08T12:17:05.128Z,5.77
2018-03-08T12:19:33.045Z,5.67
2018-03-08T12:22:00.703Z,4.60
2018-03-08T12:24:28.311Z,4.30
2018-03-08T12:26:55.958Z,4.73
2018-03-08T12:29:23.497Z,3.60
2018-03-08T12:31:51.404Z,5.60
2018-03-08T12:34:19.040Z,4.33
2018-03-08T12:36:46.605Z,4.90
2018-03-08T12:39:14.199Z,5.60
2018-03-08T12:41:41.810Z,5.07
2018-03-08T12:44:09.393Z,5.47
2018-03-08T12:46:36.959Z,5.67
2018-03-08T12:49:04.597Z,5.70
2018-03-08T12:51:32.271Z,4.57
2018-03-08T12:53:59.848Z,6.27
2018-03-08T12:56:27.432Z,6.53
2018-03-08T12:58:55.034Z,5.37
2018-03-08T13:01:22.634Z,5.43
2018-03-08T13:03:50.244Z,5.53
2018-03-08T13:06:17.805Z,5.10
2018-03-08T13:08:45.370Z,5.90
2018-03-08T13:11:13.020Z,5.17
2018-03-08T13:13:40.614Z,4.93
2018-03-08T13:16:08.988Z,4.80
2018-03-08T13:18:36.658Z,5.20
2018-03-08T13:21:04.224Z,5.60
2018-03-08T13:23:32.014Z,5.13
2018-03-08T13:25:59.606Z,4.83
2018-03-08T13:28:27.205Z,5.60
2018-03-08T13:30:54.791Z,4.90
2018-03-08T13:33:22.368Z,5.07
2018-03-08T13:35:49.949Z,5.80
2018-03-08T13:38:17.593Z,4.47
2018-03-08T13:40:45.158Z,4.07
2018-03-08T13:43:12.829Z,3.70
2018-03-08T13:45:40.453Z,4.37
2018-03-08T13:48:08.000Z,4.20
2018-03-08T13:50:35.638Z,4.13
2018-03-08T13:53:03.219Z,3.87
2018-03-08T13:55:30.798Z,4.10
2018-03-08T13:57:58.381Z,3.00
2018-03-08T14:00:26.046Z,3.00
2018-03-08T14:02:53.587Z,2.37
2018-03-08T14:05:21.156Z,2.30
2018-03-08T14:07:48.742Z,2.23
2018-03-08T14:10:16.329Z,1.97
2018-03-08T14:12:44.021Z,2.60
2018-03-08T14:15:11.563Z,2.43
2018-03-08T14:17:39.147Z,1.57
2018-03-08T14:20:06.753Z,2.20
2018-03-08T14:22:34.370Z,2.00
2018-03-08T14:25:01.954Z,2.10
2018-03-08T14:27:29.589Z,3.00
2018-03-08T14:29:57.143Z,2.47
2018-03-08T14:32:24.759Z,1.93
2018-03-08T14:34:52.353Z,2.27
2018-03-08T14:37:20.349Z,2.40
2018-03-08T14:39:48.217Z,2.50
2018-03-08T14:42:15.791Z,2.30
2018-03-08T14:44:43.404Z,2.10
2018-03-08T14:47:11.043Z,2.30
2018-03-08T14:49:38.651Z,2.10
2018-03-08T14:52:06.209Z,2.60
2018-03-08T14:54:33.904Z,2.30
2018-03-08T14:57:01.497Z,2.97
2018-03-08T14:59:29.151Z,2.47
2018-03-08T15:01:56.961Z,2.60
2018-03-08T15:04:24.939Z,2.57
2018-03-08T15:06:52.518Z,2.77
2018-03-08T15:09:20.062Z,2.60
2018-03-08T15:11:47.719Z,2.30
2018-03-08T15:14:15.306Z,2.60
2018-03-08T15:16:42.884Z,2.20
2018-03-08T15:19:10.500Z,2.07
2018-03-08T15:21:38.068Z,2.33
2018-03-08T15:24:05.691Z,2.80
2018-03-08T15:26:33.256Z,2.60
2018-03-08T15:29:00.838Z,0.40
2018-03-08T15:31:28.467Z,0.40
2018-03-08T15:33:56.013Z,0.40
2018-03-08T15:36:23.567Z,0.40
2018-03-08T15:38:51.190Z,0.80
2018-03-08T15:41:18.810Z,1.20
2018-03-08T15:43:46.407Z,2.40
2018-03-08T15:46:13.969Z,2.60
2018-03-08T15:48:41.558Z,2.63
2018-03-08T15:51:09.508Z,2.17
2018-03-08T15:53:37.175Z,2.20
2018-03-08T15:56:05.030Z,2.37
2018-03-08T15:58:32.887Z,1.83
2018-03-08T16:01:00.524Z,2.20
2018-03-08T16:03:28.375Z,1.73
2018-03-08T16:05:56.016Z,1.67
2018-03-08T16:11:21.426Z,1.30
2018-03-08T16:13:49.032Z,1.73
2018-03-08T16:16:16.947Z,2.23
2018-03-08T16:18:44.602Z,1.87
2018-03-08T16:21:12.160Z,2.57
2018-03-08T16:23:39.750Z,1.97
2018-03-08T16:26:07.391Z,2.43
2018-03-08T16:28:34.985Z,2.67
2018-03-08T16:31:02.545Z,2.80
2018-03-08T16:33:30.154Z,2.20
2018-03-08T16:35:57.787Z,2.67
2018-03-08T16:38:25.324Z,2.90
2018-03-08T16:40:53.160Z,2.47
2018-03-08T16:43:20.812Z,2.70
2018-03-08T16:45:49.464Z,3.07
2018-03-08T16:48:17.048Z,2.70
2018-03-08T16:50:44.680Z,3.00
2018-03-08T16:53:12.323Z,3.37
2018-03-08T16:55:39.880Z,2.77
2018-03-08T16:58:07.505Z,2.90
2018-03-08T17:00:35.090Z,3.20
2018-03-08T17:03:02.687Z,2.70
2018-03-08T17:05:30.280Z,3.37
2018-03-08T17:07:57.851Z,3.10
2018-03-08T17:10:25.423Z,2.60
2018-03-08T17:12:53.283Z,3.50
2018-03-08T17:15:20.880Z,2.13
2018-03-08T17:17:48.624Z,1.83
2018-03-08T17:20:16.285Z,2.20
2018-03-08T17:22:44.248Z,2.40
2018-03-08T17:25:11.882Z,2.90
2018-03-08T17:27:39.585Z,2.83
2018-03-08T17:30:07.197Z,1.87
2018-03-08T17:32:40.046Z,2.37
2018-03-08T17:35:07.642Z,2.10
2018-03-08T17:37:35.216Z,3.03
2018-03-08T17:40:02.944Z,2.77
2018-03-08T17:42:30.572Z,3.50
2018-03-08T17:44:58.524Z,2.90
2018-03-08T17:47:26.493Z,3.70
2018-03-08T17:49:54.122Z,2.37
2018-03-08T17:52:21.751Z,2.90
2018-03-08T17:54:49.802Z,2.57
2018-03-08T17:57:17.386Z,3.07
2018-03-08T17:59:44.983Z,3.37
2018-03-08T18:02:12.615Z,2.63
2018-03-08T18:04:40.198Z,3.13
2018-03-08T18:07:07.826Z,3.50
2018-03-08T18:09:35.399Z,3.73
2018-03-08T18:12:02.974Z,3.67
2018-03-08T18:14:30.593Z,3.50
2018-03-08T18:16:58.204Z,5.20
2018-03-08T18:19:25.758Z,4.27
2018-03-08T18:21:54.179Z,3.50
2018-03-08T18:24:21.760Z,3.70
2018-03-08T18:26:49.371Z,3.87
2018-03-08T18:29:17.003Z,4.20
2018-03-08T18:31:44.628Z,2.90
2018-03-08T18:34:12.232Z,3.80
2018-03-08T18:36:39.946Z,3.40
2018-03-08T18:39:07.571Z,3.80
2018-03-08T18:41:35.161Z,3.30
2018-03-08T18:44:02.796Z,3.00
2018-03-08T18:46:30.357Z,2.93
2018-03-08T18:48:57.949Z,3.13
2018-03-08T18:51:25.556Z,2.13
2018-03-08T18:53:53.128Z,1.60
2018-03-08T18:56:20.976Z,2.03
2018-03-08T18:58:48.638Z,2.20
2018-03-08T19:01:16.293Z,2.00
2018-03-08T19:03:44.386Z,2.23
2018-03-08T19:06:12.167Z,2.07
2018-03-08T19:08:39.782Z,2.80
2018-03-08T19:11:07.481Z,2.37
2018-03-08T19:13:35.141Z,2.67
2018-03-08T19:16:02.723Z,3.70
2018-03-08T19:18:30.611Z,4.10
2018-03-08T19:21:04.911Z,3.60
2018-03-08T19:23:32.531Z,3.40
2018-03-08T19:26:00.095Z,4.40
2018-03-08T19:28:27.744Z,4.17
2018-03-08T19:30:55.312Z,4.80
2018-03-08T19:33:22.894Z,4.97
2018-03-08T19:35:50.535Z,4.83
2018-03-08T19:38:18.120Z,5.00
2018-03-08T19:40:45.910Z,5.77
2018-03-08T19:43:13.770Z,6.30
2018-03-08T19:45:41.345Z,6.60
2018-03-08T19:48:08.928Z,6.30
2018-03-08T19:50:36.881Z,7.10
2018-03-08T19:53:04.561Z,7.47
2018-03-08T19:55:32.219Z,8.07
2018-03-08T19:58:00.183Z,8.20
2018-03-08T20:00:27.873Z,8.90
2018-03-08T20:02:55.505Z,9.47
2018-03-08T20:05:23.065Z,10.70
2018-03-08T20:07:50.705Z,10.57
2018-03-08T20:10:18.285Z,9.80
2018-03-08T20:12:46.411Z,11.20
2018-03-08T20:15:14.114Z,10.40
2018-03-08T20:17:41.712Z,11.17
2018-03-08T20:20:09.369Z,11.27
2018-03-08T20:22:37.201Z,12.30
2018-03-08T20:25:04.834Z,11.70
2018-03-08T20:27:32.488Z,12.20
2018-03-08T20:30:00.182Z,10.97
2018-03-08T20:32:27.768Z,11.70
2018-03-08T20:34:55.417Z,13.03
2018-03-08T20:37:23.240Z,13.30
2018-03-08T20:39:50.856Z,10.67
2018-03-08T20:42:18.482Z,11.97
2018-03-08T20:44:46.248Z,11.17
2018-03-08T20:47:13.823Z,10.87
2018-03-08T20:49:41.447Z,11.87
2018-03-08T20:52:09.220Z,10.00
2018-03-08T20:54:36.763Z,8.73
2018-03-08T20:57:04.522Z,9.20
2018-03-08T20:59:32.180Z,8.33
2018-03-08T21:01:59.759Z,7.83
2018-03-08T21:04:27.351Z,7.73
2018-03-08T21:06:55.001Z,6.73
2018-03-08T21:09:22.584Z,6.13
2018-03-08T21:11:50.225Z,5.10
2018-03-08T21:14:17.814Z,5.63
2018-03-08T21:16:45.403Z,5.00
2018-03-08T21:19:13.051Z,4.67
2018-03-08T21:21:40.646Z,5.23
2018-03-08T21:24:08.250Z,4.17
2018-03-08T21:26:35.865Z,5.60
2018-03-08T21:29:03.470Z,4.63
2018-03-08T21:31:31.058Z,4.20
2018-03-08T21:33:58.647Z,3.90
2018-03-08T21:36:26.365Z,4.30
2018-03-08T21:38:53.959Z,4.37
2018-03-08T21:41:21.530Z,3.00
2018-03-08T21:43:49.133Z,5.23
2018-03-08T21:46:16.687Z,3.20
2018-03-08T21:48:44.560Z,3.97
2018-03-08T21:51:12.148Z,3.53
2018-03-08T21:53:39.784Z,3.10
2018-03-08T21:56:07.428Z,4.13
2018-03-08T21:58:35.001Z,3.60
2018-03-08T22:01:02.563Z,3.57
2018-03-08T22:03:30.174Z,3.40
2018-03-08T22:05:57.809Z,3.20
2018-03-08T22:08:25.388Z,3.00
2018-03-08T22:10:53.006Z,3.30
2018-03-08T22:13:20.578Z,3.23
2018-03-08T22:16:05.197Z,3.10
2018-03-08T22:18:32.763Z,3.83
2018-03-08T22:21:00.334Z,3.60
2018-03-08T22:23:27.981Z,3.43
2018-03-08T22:25:55.537Z,2.90
2018-03-08T22:28:23.105Z,3.73
2018-03-08T22:30:50.743Z,3.47
2018-03-08T22:33:18.541Z,3.23
2018-03-08T22:35:46.225Z,3.97
2018-03-08T22:38:13.934Z,3.30
2018-03-08T22:40:41.628Z,3.70
2018-03-08T22:43:09.275Z,3.77
2018-03-08T22:45:36.845Z,3.60
2018-03-08T22:48:04.491Z,3.37
2018-03-08T22:50:32.062Z,3.70
2018-03-08T22:52:59.970Z,3.87
2018-03-08T22:55:38.454Z,3.60
2018-03-08T22:58:06.076Z,3.27
2018-03-08T23:00:34.173Z,3.57
2018-03-08T23:03:07.291Z,3.80
2018-03-08T23:05:35.138Z,3.60
2018-03-08T23:08:02.707Z,2.70
2018-03-08T23:10:30.616Z,3.50
2018-03-08T23:12:58.209Z,4.10
2018-03-08T23:15:25.802Z,4.20
2018-03-08T23:17:53.353Z,4.47
2018-03-08T23:20:20.967Z,3.63
2018-03-08T23:22:48.543Z,3.40
2018-03-08T23:25:16.099Z,4.10
2018-03-08T23:27:43.689Z,3.70
2018-03-08T23:30:11.311Z,3.40
2018-03-08T23:32:38.859Z,3.70
2018-03-08T23:35:06.460Z,3.80
2018-03-08T23:37:34.019Z,4.00
2018-03-08T23:40:01.614Z,3.30
2018-03-08T23:42:29.259Z,2.80
2018-03-08T23:44:56.897Z,3.00
2018-03-08T23:47:24.457Z,3.10
2018-03-08T23:49:52.009Z,2.57
2018-03-08T23:52:19.633Z,2.60
2018-03-08T23:54:47.290Z,2.40
2018-03-08T23:57:14.848Z,2.50
2018-03-08T23:59:42.439Z,2.70
